DLH884 EDDF-EETN
Flight info
| Callsign | DLH884 |
|---|---|
| Flight time | 1h 55m |
| Altitude | 35000 |
| Route | MARUN3W MARUN Y150 TOLGI DCT GARLU DCT BANUB Z131 GOSOT DCT EVONA DCT ETHUV DCT ADBIB DCT SULUN |
| Aircraft | A21N/M-SDE2E3FGIJ1LORWXYZ/HB1 |
Departure
| Time | 2026-05-05 17:01 |
|---|---|
| Airport | Frankfurt Main Airport (EDDF) |
Arrival
| Time | 2026-05-05 18:57 |
|---|---|
| Airport | Lennart Meri Tallinn Airport (EETN) |
| Time | Latitude | Longitude | Altitude | Speed | Heading |
|---|---|---|---|---|---|
| 2026-05-05 16:13 | 50.04089 | 8.55742 | 357 ft | 0 kts | 160° |
| 2026-05-05 16:52 | 50.04080 | 8.55747 | 365 ft | 4 kts | 160° |
| 2026-05-05 16:52 | 50.04043 | 8.55771 | 360 ft | 8 kts | 145° |
| 2026-05-05 16:52 | 50.04030 | 8.55861 | 359 ft | 11 kts | 82° |
| 2026-05-05 16:53 | 50.04056 | 8.55985 | 360 ft | 13 kts | 70° |
| 2026-05-05 16:53 | 50.04092 | 8.56132 | 359 ft | 16 kts | 69° |
| 2026-05-05 16:53 | 50.04131 | 8.56301 | 359 ft | 17 kts | 70° |
| 2026-05-05 16:53 | 50.04175 | 8.56487 | 361 ft | 19 kts | 69° |
| 2026-05-05 16:54 | 50.04223 | 8.56690 | 365 ft | 21 kts | 70° |
| 2026-05-05 16:54 | 50.04276 | 8.56910 | 366 ft | 22 kts | 70° |
| 2026-05-05 16:54 | 50.04332 | 8.57145 | 368 ft | 24 kts | 69° |
| 2026-05-05 16:54 | 50.04391 | 8.57391 | 370 ft | 25 kts | 70° |
| 2026-05-05 16:55 | 50.04455 | 8.57656 | 370 ft | 27 kts | 69° |
| 2026-05-05 16:55 | 50.04513 | 8.57895 | 371 ft | 22 kts | 70° |
| 2026-05-05 16:55 | 50.04568 | 8.58128 | 368 ft | 23 kts | 69° |
| 2026-05-05 16:55 | 50.04626 | 8.58370 | 374 ft | 21 kts | 69° |
| 2026-05-05 16:56 | 50.04646 | 8.58531 | 374 ft | 14 kts | 115° |
| 2026-05-05 16:56 | 50.04607 | 8.58581 | 374 ft | 0 kts | 160° |
| 2026-05-05 16:58 | 50.04602 | 8.58584 | 375 ft | 2 kts | 160° |
| 2026-05-05 16:58 | 50.04571 | 8.58601 | 375 ft | 7 kts | 159° |
| 2026-05-05 16:58 | 50.04512 | 8.58627 | 376 ft | 10 kts | 188° |
| 2026-05-05 16:59 | 50.04490 | 8.58598 | 376 ft | 0 kts | 251° |
| 2026-05-05 17:01 | 50.04466 | 8.58495 | 375 ft | 37 kts | 250° |
| 2026-05-05 17:01 | 50.04285 | 8.57731 | 371 ft | 112 kts | 248° |
| 2026-05-05 17:01 | 50.03944 | 8.56278 | 386 ft | 168 kts | 250° |
| 2026-05-05 17:01 | 50.03590 | 8.54523 | 1078 ft | 174 kts | 255° |
| 2026-05-05 17:02 | 50.03147 | 8.52754 | 1870 ft | 179 kts | 246° |
| 2026-05-05 17:02 | 50.02653 | 8.50886 | 2461 ft | 192 kts | 249° |
| 2026-05-05 17:02 | 50.01887 | 8.49176 | 3106 ft | 202 kts | 222° |
| 2026-05-05 17:02 | 50.00656 | 8.48112 | 3875 ft | 206 kts | 199° |
| 2026-05-05 17:03 | 49.99237 | 8.47725 | 4705 ft | 207 kts | 188° |
| 2026-05-05 17:03 | 49.97804 | 8.47457 | 5518 ft | 208 kts | 188° |
| 2026-05-05 17:03 | 49.96379 | 8.47154 | 6205 ft | 207 kts | 191° |
| 2026-05-05 17:03 | 49.94926 | 8.46599 | 6614 ft | 226 kts | 196° |
| 2026-05-05 17:04 | 49.93345 | 8.45862 | 6793 ft | 243 kts | 197° |
| 2026-05-05 17:04 | 49.91777 | 8.44911 | 6818 ft | 243 kts | 215° |
| 2026-05-05 17:04 | 49.90723 | 8.42885 | 6828 ft | 246 kts | 245° |
| 2026-05-05 17:04 | 49.90417 | 8.40273 | 6826 ft | 252 kts | 271° |
| 2026-05-05 17:05 | 49.90910 | 8.37665 | 6818 ft | 256 kts | 298° |
| 2026-05-05 17:05 | 49.92145 | 8.35670 | 6813 ft | 262 kts | 327° |
| 2026-05-05 17:05 | 49.93846 | 8.34460 | 6859 ft | 282 kts | 338° |
| 2026-05-05 17:05 | 49.95699 | 8.33397 | 7075 ft | 285 kts | 338° |
| 2026-05-05 17:06 | 49.97564 | 8.32291 | 7835 ft | 289 kts | 337° |
| 2026-05-05 17:06 | 49.99437 | 8.31132 | 8662 ft | 292 kts | 336° |
| 2026-05-05 17:06 | 50.01326 | 8.29926 | 9510 ft | 295 kts | 336° |
| 2026-05-05 17:06 | 50.03258 | 8.28759 | 10200 ft | 303 kts | 342° |
| 2026-05-05 17:07 | 50.05402 | 8.28305 | 10572 ft | 321 kts | 2° |
| 2026-05-05 17:07 | 50.07610 | 8.29020 | 10960 ft | 336 kts | 18° |
| 2026-05-05 17:07 | 50.09837 | 8.30238 | 11603 ft | 342 kts | 20° |
| 2026-05-05 17:07 | 50.12087 | 8.31495 | 12371 ft | 343 kts | 20° |
| 2026-05-05 17:08 | 50.14320 | 8.32713 | 13439 ft | 335 kts | 20° |
| 2026-05-05 17:08 | 50.16499 | 8.33878 | 14451 ft | 327 kts | 20° |
| 2026-05-05 17:08 | 50.18644 | 8.35008 | 15250 ft | 325 kts | 20° |
| 2026-05-05 17:08 | 50.20790 | 8.36136 | 15909 ft | 327 kts | 20° |
| 2026-05-05 17:09 | 50.22959 | 8.37277 | 16519 ft | 330 kts | 20° |
| 2026-05-05 17:09 | 50.25151 | 8.38432 | 17106 ft | 334 kts | 20° |
| 2026-05-05 17:09 | 50.27363 | 8.39597 | 17689 ft | 337 kts | 20° |
| 2026-05-05 17:09 | 50.29598 | 8.40776 | 18235 ft | 341 kts | 20° |
| 2026-05-05 17:10 | 50.31850 | 8.41993 | 18716 ft | 343 kts | 21° |
| 2026-05-05 17:10 | 50.34146 | 8.43101 | 19179 ft | 347 kts | 10° |
| 2026-05-05 17:10 | 50.36561 | 8.43349 | 19644 ft | 350 kts | 0° |
| 2026-05-05 17:10 | 50.39003 | 8.43271 | 20127 ft | 352 kts | 359° |
| 2026-05-05 17:11 | 50.41460 | 8.43136 | 20666 ft | 355 kts | 358° |
| 2026-05-05 17:11 | 50.43949 | 8.42990 | 21189 ft | 359 kts | 358° |
| 2026-05-05 17:11 | 50.46451 | 8.42840 | 21713 ft | 361 kts | 358° |
| 2026-05-05 17:11 | 50.48965 | 8.42689 | 22216 ft | 364 kts | 358° |
| 2026-05-05 17:12 | 50.51511 | 8.42539 | 22727 ft | 367 kts | 358° |
| 2026-05-05 17:12 | 50.54077 | 8.42390 | 23233 ft | 370 kts | 358° |
| 2026-05-05 17:12 | 50.56625 | 8.42242 | 23663 ft | 373 kts | 358° |
| 2026-05-05 17:12 | 50.59233 | 8.42103 | 24038 ft | 377 kts | 359° |
| 2026-05-05 17:13 | 50.61875 | 8.42179 | 24425 ft | 381 kts | 2° |
| 2026-05-05 17:13 | 50.64538 | 8.42384 | 24836 ft | 383 kts | 3° |
| 2026-05-05 17:13 | 50.67212 | 8.42619 | 25221 ft | 386 kts | 4° |
| 2026-05-05 17:13 | 50.69878 | 8.43217 | 25614 ft | 388 kts | 12° |
| 2026-05-05 17:14 | 50.72532 | 8.44083 | 25992 ft | 390 kts | 13° |
| 2026-05-05 17:14 | 50.74292 | 8.44692 | 26257 ft | 392 kts | 13° |
| 2026-05-05 17:14 | 50.77873 | 8.45949 | 26766 ft | 396 kts | 13° |
| 2026-05-05 17:14 | 50.79635 | 8.46696 | 27015 ft | 396 kts | 21° |
| 2026-05-05 17:15 | 50.82072 | 8.48696 | 27383 ft | 395 kts | 39° |
| 2026-05-05 17:15 | 50.84063 | 8.51662 | 27753 ft | 392 kts | 51° |
| 2026-05-05 17:15 | 50.85848 | 8.54925 | 28123 ft | 394 kts | 52° |
| 2026-05-05 17:15 | 50.88207 | 8.59318 | 28570 ft | 397 kts | 52° |
| 2026-05-05 17:16 | 50.89432 | 8.61575 | 28820 ft | 399 kts | 52° |
| 2026-05-05 17:16 | 50.91258 | 8.64907 | 29176 ft | 401 kts | 52° |
| 2026-05-05 17:16 | 50.93076 | 8.68203 | 29524 ft | 404 kts | 52° |
| 2026-05-05 17:16 | 50.94932 | 8.71561 | 29871 ft | 406 kts | 52° |
| 2026-05-05 17:17 | 50.96797 | 8.74938 | 30167 ft | 409 kts | 52° |
| 2026-05-05 17:17 | 50.98678 | 8.78349 | 30449 ft | 411 kts | 52° |
| 2026-05-05 17:17 | 51.00569 | 8.81781 | 30741 ft | 413 kts | 52° |
| 2026-05-05 17:17 | 51.02467 | 8.85226 | 30925 ft | 416 kts | 52° |
| 2026-05-05 17:18 | 51.04379 | 8.88705 | 31147 ft | 419 kts | 52° |
| 2026-05-05 17:18 | 51.06306 | 8.92215 | 31274 ft | 424 kts | 52° |
| 2026-05-05 17:18 | 51.08249 | 8.95764 | 31384 ft | 429 kts | 52° |
| 2026-05-05 17:18 | 51.10223 | 8.99372 | 31480 ft | 434 kts | 52° |
| 2026-05-05 17:19 | 51.14237 | 9.06728 | 31656 ft | 445 kts | 52° |
| 2026-05-05 17:19 | 51.16280 | 9.10476 | 31760 ft | 451 kts | 52° |
| 2026-05-05 17:19 | 51.18355 | 9.14285 | 31855 ft | 457 kts | 52° |
| 2026-05-05 17:20 | 51.20447 | 9.18130 | 32004 ft | 461 kts | 52° |
| 2026-05-05 17:20 | 51.22551 | 9.22005 | 32275 ft | 462 kts | 52° |
| 2026-05-05 17:20 | 51.24634 | 9.25850 | 32456 ft | 465 kts | 52° |
| 2026-05-05 17:20 | 51.26812 | 9.29684 | 32702 ft | 469 kts | 46° |
| 2026-05-05 17:21 | 51.29369 | 9.32955 | 33016 ft | 472 kts | 34° |
| 2026-05-05 17:21 | 51.32302 | 9.35322 | 33319 ft | 474 kts | 21° |
| 2026-05-05 17:21 | 51.35469 | 9.36733 | 33617 ft | 473 kts | 12° |
| 2026-05-05 17:22 | 51.41914 | 9.38894 | 34115 ft | 473 kts | 12° |
| 2026-05-05 17:22 | 51.45133 | 9.39991 | 34350 ft | 472 kts | 11° |
| 2026-05-05 17:22 | 51.48350 | 9.41105 | 34555 ft | 473 kts | 11° |
| 2026-05-05 17:22 | 51.51560 | 9.42224 | 34769 ft | 473 kts | 11° |
| 2026-05-05 17:23 | 51.54771 | 9.43351 | 34837 ft | 471 kts | 11° |
| 2026-05-05 17:23 | 51.61177 | 9.45614 | 34806 ft | 471 kts | 12° |
| 2026-05-05 17:24 | 51.67587 | 9.47881 | 34809 ft | 471 kts | 11° |
| 2026-05-05 17:24 | 51.73988 | 9.50147 | 34814 ft | 471 kts | 11° |
| 2026-05-05 17:25 | 51.80368 | 9.52601 | 34820 ft | 472 kts | 18° |
| 2026-05-05 17:25 | 51.85976 | 9.57835 | 34824 ft | 470 kts | 43° |
| 2026-05-05 17:26 | 51.90705 | 9.65139 | 34834 ft | 471 kts | 46° |
| 2026-05-05 17:26 | 51.95430 | 9.72551 | 34829 ft | 472 kts | 45° |
| 2026-05-05 17:27 | 52.00174 | 9.79911 | 34836 ft | 472 kts | 45° |
| 2026-05-05 17:27 | 52.04930 | 9.87307 | 34826 ft | 474 kts | 45° |
| 2026-05-05 17:28 | 52.09688 | 9.94727 | 34838 ft | 474 kts | 45° |
| 2026-05-05 17:28 | 52.14473 | 10.02200 | 34847 ft | 476 kts | 44° |
| 2026-05-05 17:29 | 52.19208 | 10.09628 | 34848 ft | 477 kts | 44° |
| 2026-05-05 17:29 | 52.24023 | 10.17177 | 34852 ft | 476 kts | 44° |
| 2026-05-05 17:30 | 52.28763 | 10.24647 | 34854 ft | 476 kts | 44° |
| 2026-05-05 17:30 | 52.33529 | 10.32196 | 34856 ft | 478 kts | 44° |
| 2026-05-05 17:31 | 52.38300 | 10.39767 | 34852 ft | 479 kts | 44° |
| 2026-05-05 17:31 | 52.43077 | 10.47370 | 34847 ft | 479 kts | 44° |
| 2026-05-05 17:32 | 52.47854 | 10.55001 | 34841 ft | 479 kts | 44° |
| 2026-05-05 17:32 | 52.52625 | 10.62654 | 34848 ft | 479 kts | 44° |
| 2026-05-05 17:33 | 52.57398 | 10.70335 | 34853 ft | 481 kts | 44° |
| 2026-05-05 17:33 | 52.62152 | 10.78005 | 34852 ft | 481 kts | 44° |
| 2026-05-05 17:34 | 52.66921 | 10.85738 | 34858 ft | 481 kts | 44° |
| 2026-05-05 17:34 | 52.71695 | 10.93487 | 34852 ft | 481 kts | 44° |
| 2026-05-05 17:35 | 52.76455 | 11.01262 | 34868 ft | 482 kts | 44° |
| 2026-05-05 17:35 | 52.81262 | 11.09137 | 34867 ft | 492 kts | 44° |
| 2026-05-05 17:36 | 52.86016 | 11.17450 | 34857 ft | 499 kts | 47° |
| 2026-05-05 17:36 | 52.90661 | 11.25993 | 34858 ft | 500 kts | 47° |
| 2026-05-05 17:37 | 52.95320 | 11.34573 | 34859 ft | 500 kts | 47° |
| 2026-05-05 17:37 | 52.99981 | 11.43176 | 34863 ft | 500 kts | 47° |
| 2026-05-05 17:38 | 53.04597 | 11.51727 | 34864 ft | 500 kts | 47° |
| 2026-05-05 17:38 | 53.09259 | 11.60399 | 34861 ft | 499 kts | 47° |
| 2026-05-05 17:39 | 53.13854 | 11.68983 | 34863 ft | 499 kts | 47° |
| 2026-05-05 17:39 | 53.18476 | 11.77631 | 34871 ft | 500 kts | 47° |
| 2026-05-05 17:40 | 53.23246 | 11.86143 | 34859 ft | 500 kts | 44° |
| 2026-05-05 17:40 | 53.28082 | 11.94523 | 34870 ft | 501 kts | 44° |
| 2026-05-05 17:41 | 53.32892 | 12.02944 | 34864 ft | 501 kts | 44° |
| 2026-05-05 17:41 | 53.37697 | 12.11412 | 34870 ft | 501 kts | 45° |
| 2026-05-05 17:42 | 53.42472 | 12.19859 | 34878 ft | 502 kts | 44° |
| 2026-05-05 17:42 | 53.47278 | 12.28352 | 34877 ft | 502 kts | 44° |
| 2026-05-05 17:43 | 53.52080 | 12.36868 | 34878 ft | 502 kts | 44° |
| 2026-05-05 17:43 | 53.56874 | 12.45428 | 34877 ft | 502 kts | 45° |
| 2026-05-05 17:44 | 53.61664 | 12.54008 | 34899 ft | 503 kts | 44° |
| 2026-05-05 17:44 | 53.66453 | 12.62607 | 34886 ft | 502 kts | 44° |
| 2026-05-05 17:45 | 53.71231 | 12.71223 | 34886 ft | 503 kts | 44° |
| 2026-05-05 17:45 | 53.76006 | 12.79858 | 34885 ft | 503 kts | 44° |
| 2026-05-05 17:46 | 53.80772 | 12.88509 | 34910 ft | 503 kts | 44° |
| 2026-05-05 17:46 | 53.85524 | 12.97172 | 34888 ft | 505 kts | 44° |
| 2026-05-05 17:47 | 53.90303 | 13.05923 | 34884 ft | 506 kts | 44° |
| 2026-05-05 17:47 | 53.95082 | 13.14696 | 34885 ft | 506 kts | 45° |
| 2026-05-05 17:48 | 53.99834 | 13.23480 | 34897 ft | 505 kts | 45° |
| 2026-05-05 17:48 | 54.04593 | 13.32281 | 34896 ft | 506 kts | 44° |
| 2026-05-05 17:49 | 54.09357 | 13.41117 | 34895 ft | 506 kts | 44° |
| 2026-05-05 17:49 | 54.14104 | 13.49968 | 34897 ft | 506 kts | 45° |
| 2026-05-05 17:50 | 54.18853 | 13.58842 | 34897 ft | 506 kts | 45° |
| 2026-05-05 17:50 | 54.23592 | 13.67736 | 34935 ft | 506 kts | 44° |
| 2026-05-05 17:51 | 54.28322 | 13.76609 | 34913 ft | 504 kts | 44° |
| 2026-05-05 17:51 | 54.33032 | 13.85507 | 34908 ft | 504 kts | 45° |
| 2026-05-05 17:52 | 54.37735 | 13.94430 | 34907 ft | 504 kts | 45° |
| 2026-05-05 17:52 | 54.42410 | 14.03329 | 34887 ft | 505 kts | 45° |
| 2026-05-05 17:53 | 54.47101 | 14.12298 | 34920 ft | 503 kts | 44° |
| 2026-05-05 17:53 | 54.51762 | 14.21238 | 34909 ft | 502 kts | 44° |
| 2026-05-05 17:54 | 54.56431 | 14.30214 | 34907 ft | 502 kts | 45° |
| 2026-05-05 17:54 | 54.61081 | 14.39200 | 34906 ft | 502 kts | 45° |
| 2026-05-05 17:55 | 54.65724 | 14.48219 | 34936 ft | 502 kts | 45° |
| 2026-05-05 17:55 | 54.70342 | 14.57212 | 34913 ft | 498 kts | 45° |
| 2026-05-05 17:56 | 54.74941 | 14.66195 | 34907 ft | 499 kts | 45° |
| 2026-05-05 17:56 | 54.79506 | 14.75146 | 34907 ft | 499 kts | 45° |
| 2026-05-05 17:57 | 54.84104 | 14.84196 | 34900 ft | 500 kts | 45° |
| 2026-05-05 17:57 | 54.88689 | 14.93261 | 34921 ft | 498 kts | 45° |
| 2026-05-05 17:58 | 54.93253 | 15.02311 | 34908 ft | 497 kts | 45° |
| 2026-05-05 17:58 | 54.97777 | 15.11322 | 34907 ft | 498 kts | 45° |
| 2026-05-05 17:59 | 55.02324 | 15.20410 | 34907 ft | 498 kts | 45° |
| 2026-05-05 17:59 | 55.06869 | 15.29519 | 34905 ft | 498 kts | 46° |
| 2026-05-05 18:00 | 55.11406 | 15.38651 | 34906 ft | 498 kts | 46° |
| 2026-05-05 18:00 | 55.15938 | 15.47818 | 34904 ft | 498 kts | 46° |
| 2026-05-05 18:01 | 55.19705 | 15.55459 | 34903 ft | 498 kts | 46° |
| 2026-05-05 18:01 | 55.24959 | 15.66154 | 34899 ft | 499 kts | 46° |
| 2026-05-05 18:02 | 55.29478 | 15.75396 | 34935 ft | 498 kts | 46° |
| 2026-05-05 18:02 | 55.33243 | 15.83130 | 34909 ft | 495 kts | 46° |
| 2026-05-05 18:03 | 55.37698 | 15.92294 | 34905 ft | 496 kts | 46° |
| 2026-05-05 18:03 | 55.42169 | 16.01534 | 34909 ft | 496 kts | 46° |
| 2026-05-05 18:04 | 55.46637 | 16.10800 | 34909 ft | 496 kts | 46° |
| 2026-05-05 18:04 | 55.51091 | 16.20073 | 34920 ft | 495 kts | 47° |
| 2026-05-05 18:05 | 55.55522 | 16.29343 | 34902 ft | 493 kts | 47° |
| 2026-05-05 18:05 | 55.59953 | 16.38632 | 34903 ft | 493 kts | 47° |
| 2026-05-05 18:06 | 55.64333 | 16.47862 | 34906 ft | 493 kts | 47° |
| 2026-05-05 18:06 | 55.68745 | 16.57196 | 34906 ft | 493 kts | 47° |
| 2026-05-05 18:07 | 55.73145 | 16.66552 | 34921 ft | 491 kts | 47° |
| 2026-05-05 18:07 | 55.77498 | 16.75839 | 34906 ft | 489 kts | 47° |
| 2026-05-05 18:08 | 55.81841 | 16.85132 | 34905 ft | 489 kts | 47° |
| 2026-05-05 18:08 | 55.86180 | 16.94468 | 34902 ft | 489 kts | 47° |
| 2026-05-05 18:09 | 55.90521 | 17.03813 | 34903 ft | 489 kts | 48° |
| 2026-05-05 18:09 | 55.94852 | 17.13172 | 34907 ft | 488 kts | 48° |
| 2026-05-05 18:10 | 55.99136 | 17.22473 | 34903 ft | 488 kts | 48° |
| 2026-05-05 18:10 | 56.03429 | 17.31837 | 34901 ft | 487 kts | 48° |
| 2026-05-05 18:11 | 56.07719 | 17.41219 | 34907 ft | 487 kts | 48° |
| 2026-05-05 18:11 | 56.12001 | 17.50626 | 34907 ft | 487 kts | 48° |
| 2026-05-05 18:12 | 56.16278 | 17.60063 | 34913 ft | 488 kts | 48° |
| 2026-05-05 18:12 | 56.20562 | 17.69543 | 34906 ft | 488 kts | 48° |
| 2026-05-05 18:13 | 56.24823 | 17.79025 | 34910 ft | 488 kts | 48° |
| 2026-05-05 18:13 | 56.29065 | 17.88487 | 34909 ft | 488 kts | 49° |
| 2026-05-05 18:14 | 56.33317 | 17.98022 | 34907 ft | 488 kts | 49° |
| 2026-05-05 18:14 | 56.37584 | 18.07620 | 34916 ft | 492 kts | 49° |
| 2026-05-05 18:15 | 56.41852 | 18.17272 | 34906 ft | 490 kts | 49° |
| 2026-05-05 18:15 | 56.46094 | 18.26899 | 34911 ft | 489 kts | 49° |
| 2026-05-05 18:16 | 56.50325 | 18.36534 | 34913 ft | 489 kts | 49° |
| 2026-05-05 18:16 | 56.54551 | 18.46188 | 34913 ft | 489 kts | 49° |
| 2026-05-05 18:17 | 56.58784 | 18.55903 | 34922 ft | 492 kts | 49° |
| 2026-05-05 18:17 | 56.63026 | 18.65679 | 34918 ft | 493 kts | 49° |
| 2026-05-05 18:18 | 56.67257 | 18.75480 | 34911 ft | 493 kts | 49° |
| 2026-05-05 18:18 | 56.71480 | 18.85301 | 34910 ft | 493 kts | 49° |
| 2026-05-05 18:19 | 56.75673 | 18.95092 | 34945 ft | 493 kts | 49° |
| 2026-05-05 18:19 | 56.79904 | 19.05003 | 34894 ft | 495 kts | 50° |
| 2026-05-05 18:20 | 56.84106 | 19.14884 | 34900 ft | 493 kts | 50° |
| 2026-05-05 18:20 | 56.88300 | 19.24787 | 34905 ft | 493 kts | 50° |
| 2026-05-05 18:21 | 56.92492 | 19.34722 | 34908 ft | 493 kts | 50° |
| 2026-05-05 18:21 | 56.96675 | 19.44689 | 34939 ft | 493 kts | 50° |
| 2026-05-05 18:22 | 57.00871 | 19.54714 | 34911 ft | 497 kts | 50° |
| 2026-05-05 18:22 | 57.05070 | 19.64803 | 34908 ft | 497 kts | 50° |
| 2026-05-05 18:23 | 57.09267 | 19.74929 | 34904 ft | 497 kts | 50° |
| 2026-05-05 18:23 | 57.13428 | 19.85005 | 34906 ft | 497 kts | 50° |
| 2026-05-05 18:24 | 57.17656 | 19.95073 | 34890 ft | 496 kts | 48° |
| 2026-05-05 18:24 | 57.22031 | 20.04978 | 34912 ft | 494 kts | 48° |
| 2026-05-05 18:25 | 57.26369 | 20.14822 | 34899 ft | 494 kts | 48° |
| 2026-05-05 18:25 | 57.30687 | 20.24636 | 34908 ft | 494 kts | 48° |
| 2026-05-05 18:26 | 57.35016 | 20.34543 | 34906 ft | 494 kts | 48° |
| 2026-05-05 18:26 | 57.39342 | 20.44461 | 34909 ft | 497 kts | 48° |
| 2026-05-05 18:27 | 57.43681 | 20.54469 | 34904 ft | 498 kts | 49° |
| 2026-05-05 18:27 | 57.48014 | 20.64521 | 34903 ft | 498 kts | 49° |
| 2026-05-05 18:28 | 57.54496 | 20.79647 | 34899 ft | 498 kts | 49° |
| 2026-05-05 18:28 | 57.58804 | 20.89733 | 34932 ft | 498 kts | 49° |
| 2026-05-05 18:29 | 57.63130 | 20.99864 | 34896 ft | 499 kts | 49° |
| 2026-05-05 18:29 | 57.67440 | 21.10025 | 34897 ft | 499 kts | 49° |
| 2026-05-05 18:30 | 57.71741 | 21.20216 | 34904 ft | 499 kts | 49° |
| 2026-05-05 18:30 | 57.76008 | 21.30383 | 34901 ft | 499 kts | 49° |
| 2026-05-05 18:31 | 57.80280 | 21.40625 | 34916 ft | 501 kts | 49° |
| 2026-05-05 18:31 | 57.84579 | 21.50972 | 34901 ft | 503 kts | 49° |
| 2026-05-05 18:32 | 57.88877 | 21.61341 | 34895 ft | 503 kts | 49° |
| 2026-05-05 18:32 | 57.93171 | 21.71730 | 34894 ft | 503 kts | 49° |
| 2026-05-05 18:33 | 57.97465 | 21.82133 | 34896 ft | 503 kts | 50° |
| 2026-05-05 18:33 | 58.01760 | 21.92582 | 34916 ft | 506 kts | 49° |
| 2026-05-05 18:34 | 58.06164 | 22.02929 | 34880 ft | 503 kts | 49° |
| 2026-05-05 18:34 | 58.10523 | 22.13257 | 34889 ft | 503 kts | 49° |
| 2026-05-05 18:35 | 58.14847 | 22.23567 | 34885 ft | 503 kts | 49° |
| 2026-05-05 18:35 | 58.19196 | 22.33971 | 34885 ft | 503 kts | 49° |
| 2026-05-05 18:36 | 58.23543 | 22.44418 | 34902 ft | 506 kts | 49° |
| 2026-05-05 18:36 | 58.27889 | 22.54939 | 34880 ft | 505 kts | 49° |
| 2026-05-05 18:37 | 58.32228 | 22.65465 | 34876 ft | 505 kts | 49° |
| 2026-05-05 18:37 | 58.36562 | 22.76037 | 34880 ft | 506 kts | 49° |
| 2026-05-05 18:38 | 58.38721 | 22.81319 | 34400 ft | 505 kts | 49° |
| 2026-05-05 18:38 | 58.40892 | 22.86636 | 33331 ft | 511 kts | 49° |
| 2026-05-05 18:38 | 58.43057 | 22.91955 | 32402 ft | 515 kts | 49° |
| 2026-05-05 18:38 | 58.45253 | 22.97356 | 31533 ft | 516 kts | 49° |
| 2026-05-05 18:39 | 58.47460 | 23.02797 | 30667 ft | 518 kts | 49° |
| 2026-05-05 18:39 | 58.49663 | 23.08248 | 29727 ft | 520 kts | 50° |
| 2026-05-05 18:39 | 58.51875 | 23.13750 | 28688 ft | 521 kts | 50° |
| 2026-05-05 18:39 | 58.54088 | 23.19254 | 27712 ft | 524 kts | 50° |
| 2026-05-05 18:40 | 58.56308 | 23.24785 | 26717 ft | 525 kts | 50° |
| 2026-05-05 18:40 | 58.58533 | 23.30354 | 25637 ft | 527 kts | 50° |
| 2026-05-05 18:40 | 58.60771 | 23.35950 | 24596 ft | 529 kts | 50° |
| 2026-05-05 18:40 | 58.63007 | 23.41555 | 23724 ft | 528 kts | 50° |
| 2026-05-05 18:41 | 58.65229 | 23.47139 | 22833 ft | 525 kts | 50° |
| 2026-05-05 18:41 | 58.67435 | 23.52702 | 22015 ft | 523 kts | 50° |
| 2026-05-05 18:41 | 58.69653 | 23.58304 | 21523 ft | 524 kts | 50° |
| 2026-05-05 18:41 | 58.71845 | 23.63853 | 21097 ft | 520 kts | 50° |
| 2026-05-05 18:42 | 58.74023 | 23.69386 | 20483 ft | 514 kts | 50° |
| 2026-05-05 18:42 | 58.76163 | 23.74837 | 19827 ft | 506 kts | 50° |
| 2026-05-05 18:42 | 58.78278 | 23.80231 | 19171 ft | 499 kts | 50° |
| 2026-05-05 18:42 | 58.80328 | 23.85473 | 18497 ft | 494 kts | 50° |
| 2026-05-05 18:43 | 58.82412 | 23.90815 | 17730 ft | 489 kts | 50° |
| 2026-05-05 18:43 | 58.84443 | 23.96033 | 16938 ft | 485 kts | 50° |
| 2026-05-05 18:43 | 58.86461 | 24.01226 | 16243 ft | 481 kts | 50° |
| 2026-05-05 18:43 | 58.88464 | 24.06386 | 15610 ft | 477 kts | 50° |
| 2026-05-05 18:44 | 58.90446 | 24.11501 | 15012 ft | 474 kts | 51° |
| 2026-05-05 18:44 | 58.92408 | 24.16594 | 14450 ft | 470 kts | 51° |
| 2026-05-05 18:44 | 58.94333 | 24.21598 | 13981 ft | 459 kts | 51° |
| 2026-05-05 18:44 | 58.96237 | 24.26549 | 13551 ft | 459 kts | 51° |
| 2026-05-05 18:45 | 58.98138 | 24.31508 | 13000 ft | 456 kts | 51° |
| 2026-05-05 18:45 | 58.99983 | 24.36350 | 12398 ft | 452 kts | 51° |
| 2026-05-05 18:45 | 59.01835 | 24.41214 | 11849 ft | 442 kts | 52° |
| 2026-05-05 18:45 | 59.03636 | 24.45943 | 11499 ft | 427 kts | 52° |
| 2026-05-05 18:46 | 59.05367 | 24.50491 | 11211 ft | 411 kts | 52° |
| 2026-05-05 18:46 | 59.07032 | 24.54876 | 10963 ft | 394 kts | 51° |
| 2026-05-05 18:46 | 59.08102 | 24.57684 | 10814 ft | 385 kts | 51° |
| 2026-05-05 18:46 | 59.09686 | 24.61847 | 10599 ft | 370 kts | 52° |
| 2026-05-05 18:47 | 59.11164 | 24.65755 | 10399 ft | 357 kts | 52° |
| 2026-05-05 18:47 | 59.12607 | 24.69578 | 10171 ft | 344 kts | 52° |
| 2026-05-05 18:47 | 59.13997 | 24.73265 | 9885 ft | 334 kts | 52° |
| 2026-05-05 18:47 | 59.15368 | 24.76901 | 9386 ft | 331 kts | 52° |
| 2026-05-05 18:48 | 59.16715 | 24.80482 | 8936 ft | 326 kts | 52° |
| 2026-05-05 18:48 | 59.18044 | 24.84021 | 8519 ft | 320 kts | 52° |
| 2026-05-05 18:48 | 59.19342 | 24.87485 | 8091 ft | 315 kts | 51° |
| 2026-05-05 18:48 | 59.20619 | 24.90904 | 7680 ft | 309 kts | 51° |
| 2026-05-05 18:49 | 59.21875 | 24.94270 | 7248 ft | 304 kts | 51° |
| 2026-05-05 18:49 | 59.23109 | 24.97580 | 6864 ft | 298 kts | 51° |
| 2026-05-05 18:49 | 59.24320 | 25.00834 | 6401 ft | 293 kts | 51° |
| 2026-05-05 18:49 | 59.25506 | 25.04022 | 5933 ft | 288 kts | 51° |
| 2026-05-05 18:50 | 59.26676 | 25.07171 | 5426 ft | 284 kts | 51° |
| 2026-05-05 18:50 | 59.27818 | 25.10251 | 5190 ft | 274 kts | 51° |
| 2026-05-05 18:50 | 59.28914 | 25.13211 | 5030 ft | 263 kts | 51° |
| 2026-05-05 18:50 | 59.29970 | 25.16040 | 4772 ft | 253 kts | 47° |
| 2026-05-05 18:51 | 59.31308 | 25.18104 | 4458 ft | 242 kts | 19° |
| 2026-05-05 18:51 | 59.32909 | 25.18828 | 4162 ft | 231 kts | 2° |
| 2026-05-05 18:51 | 59.34473 | 25.19093 | 3867 ft | 221 kts | 0° |
| 2026-05-05 18:51 | 59.35962 | 25.19312 | 3565 ft | 213 kts | 360° |
| 2026-05-05 18:52 | 59.37420 | 25.19483 | 3213 ft | 206 kts | 351° |
| 2026-05-05 18:52 | 59.38711 | 25.18569 | 2850 ft | 188 kts | 319° |
| 2026-05-05 18:52 | 59.39467 | 25.16664 | 2583 ft | 175 kts | 301° |
| 2026-05-05 18:52 | 59.40077 | 25.14647 | 2255 ft | 168 kts | 300° |
| 2026-05-05 18:53 | 59.40658 | 25.12712 | 2160 ft | 165 kts | 300° |
| 2026-05-05 18:53 | 59.41100 | 25.10630 | 2159 ft | 167 kts | 283° |
| 2026-05-05 18:53 | 59.41229 | 25.08376 | 2176 ft | 163 kts | 275° |
| 2026-05-05 18:53 | 59.41251 | 25.06276 | 2143 ft | 148 kts | 273° |
| 2026-05-05 18:54 | 59.41262 | 25.04266 | 1993 ft | 147 kts | 273° |
| 2026-05-05 18:54 | 59.41269 | 25.02262 | 1803 ft | 147 kts | 272° |
| 2026-05-05 18:54 | 59.41274 | 25.00259 | 1652 ft | 146 kts | 272° |
| 2026-05-05 18:54 | 59.41280 | 24.98292 | 1438 ft | 137 kts | 272° |
| 2026-05-05 18:55 | 59.41277 | 24.96567 | 1120 ft | 122 kts | 271° |
| 2026-05-05 18:55 | 59.41285 | 24.94901 | 964 ft | 122 kts | 272° |
| 2026-05-05 18:55 | 59.41299 | 24.93240 | 786 ft | 121 kts | 271° |
| 2026-05-05 18:55 | 59.41298 | 24.91593 | 617 ft | 121 kts | 269° |
| 2026-05-05 18:56 | 59.41304 | 24.89974 | 478 ft | 121 kts | 270° |
| 2026-05-05 18:56 | 59.41307 | 24.88316 | 330 ft | 119 kts | 270° |
| 2026-05-05 18:56 | 59.41314 | 24.86701 | 204 ft | 120 kts | 270° |
| 2026-05-05 18:56 | 59.41320 | 24.85157 | 169 ft | 98 kts | 270° |
| 2026-05-05 18:57 | 59.41323 | 24.84133 | 166 ft | 61 kts | 270° |
| 2026-05-05 18:57 | 59.41327 | 24.83384 | 170 ft | 54 kts | 271° |
| 2026-05-05 18:57 | 59.41363 | 24.82682 | 166 ft | 28 kts | 295° |
| 2026-05-05 18:57 | 59.41428 | 24.82443 | 167 ft | 7 kts | 300° |
| 2026-05-05 18:58 | 59.41441 | 24.82401 | 167 ft | 0 kts | 300° |
| 2026-05-05 18:58 | 59.41442 | 24.82397 | 167 ft | 2 kts | 300° |
| 2026-05-05 18:59 | 59.41456 | 24.82350 | 167 ft | 7 kts | 300° |
| 2026-05-05 18:59 | 59.41485 | 24.82252 | 167 ft | 10 kts | 300° |
| 2026-05-05 18:59 | 59.41503 | 24.82099 | 167 ft | 13 kts | 271° |
| 2026-05-05 18:59 | 59.41504 | 24.81898 | 167 ft | 17 kts | 269° |
| 2026-05-05 19:00 | 59.41504 | 24.81651 | 167 ft | 19 kts | 270° |
| 2026-05-05 19:00 | 59.41504 | 24.81379 | 167 ft | 21 kts | 270° |
| 2026-05-05 19:00 | 59.41504 | 24.81083 | 167 ft | 23 kts | 270° |
| 2026-05-05 19:00 | 59.41507 | 24.80765 | 167 ft | 24 kts | 271° |
| 2026-05-05 19:01 | 59.41522 | 24.80438 | 167 ft | 22 kts | 284° |
| 2026-05-05 19:01 | 59.41529 | 24.80264 | 167 ft | 11 kts | 270° |
| 2026-05-05 19:01 | 59.41550 | 24.80139 | 167 ft | 8 kts | 341° |
| 2026-05-05 19:01 | 59.41558 | 24.80140 | 167 ft | 2 kts | 1° |
| 2026-05-05 19:02 | 59.41574 | 24.80136 | 167 ft | 3 kts | 0° |
| 2026-05-05 19:02 | 59.41583 | 24.80136 | 167 ft | 0 kts | 358° |